createdAt,value
2018-04-13T00:00:33.095Z,89.40
2018-04-13T00:01:33.006Z,89.79
2018-04-13T00:02:32.926Z,89.40
2018-04-13T00:03:32.851Z,90.08
2018-04-13T00:04:32.774Z,89.50
2018-04-13T00:05:32.693Z,89.60
2018-04-13T00:06:32.616Z,89.50
2018-04-13T00:07:32.539Z,89.50
2018-04-13T00:08:32.471Z,89.22
2018-04-13T00:09:32.385Z,89.31
2018-04-13T00:10:32.309Z,89.40
2018-04-13T00:11:32.229Z,89.50
2018-04-13T00:12:32.158Z,89.69
2018-04-13T00:13:32.073Z,89.46
2018-04-13T00:14:31.998Z,89.75
2018-04-13T00:15:31.916Z,89.65
2018-04-13T00:16:31.846Z,90.70
2018-04-13T00:17:31.763Z,89.65
2018-04-13T00:18:31.685Z,89.75
2018-04-13T00:19:31.610Z,90.50
2018-04-13T00:20:31.531Z,90.41
2018-04-13T00:21:31.451Z,90.12
2018-04-13T00:22:31.375Z,90.12
2018-04-13T00:23:31.298Z,90.12
2018-04-13T00:24:31.220Z,90.12
2018-04-13T00:25:31.141Z,90.50
2018-04-13T00:26:31.064Z,90.12
2018-04-13T00:27:30.987Z,90.31
2018-04-13T00:28:30.914Z,90.41
2018-04-13T00:29:30.837Z,90.22
2018-04-13T00:30:30.755Z,90.60
2018-04-13T00:31:30.686Z,90.22
2018-04-13T00:32:30.605Z,90.22
2018-04-13T00:33:30.521Z,90.60
2018-04-13T00:34:30.440Z,90.41
2018-04-13T00:35:30.366Z,90.03
2018-04-13T00:36:30.292Z,90.60
2018-04-13T00:37:30.209Z,90.60
2018-04-13T00:38:30.130Z,90.22
2018-04-13T00:39:30.054Z,90.12
2018-04-13T00:40:29.976Z,90.03
2018-04-13T00:41:29.897Z,90.31
2018-04-13T00:42:29.830Z,90.50
2018-04-13T00:43:29.742Z,90.60
2018-04-13T00:44:29.665Z,90.89
2018-04-13T00:45:29.619Z,90.94
2018-04-13T00:46:29.514Z,91.08
2018-04-13T00:47:29.431Z,91.03
2018-04-13T00:48:29.400Z,90.94
2018-04-13T00:49:29.279Z,90.84
2018-04-13T00:50:29.198Z,91.22
2018-04-13T00:51:29.119Z,92.27
2018-04-13T00:52:29.042Z,92.27
2018-04-13T00:53:28.973Z,91.99
2018-04-13T00:54:28.885Z,91.70
2018-04-13T00:55:28.809Z,91.51
2018-04-13T00:56:28.729Z,90.94
2018-04-13T00:57:28.649Z,90.75
2018-04-13T00:58:28.589Z,90.75
2018-04-13T00:59:28.495Z,91.31
2018-04-13T01:00:28.418Z,91.31
2018-04-13T01:01:28.341Z,91.51
2018-04-13T01:02:28.283Z,91.89
2018-04-13T01:03:28.185Z,91.51
2018-04-13T01:04:28.105Z,91.41
2018-04-13T01:05:28.030Z,91.51
2018-04-13T01:06:27.949Z,91.70
2018-04-13T01:07:27.870Z,91.31
2018-04-13T01:08:27.796Z,91.70
2018-04-13T01:09:27.728Z,91.99
2018-04-13T01:10:27.637Z,91.89
2018-04-13T01:11:27.558Z,92.08
2018-04-13T01:12:27.481Z,92.27
2018-04-13T01:13:27.406Z,92.27
2018-04-13T01:14:27.328Z,91.99
2018-04-13T01:15:27.249Z,91.89
2018-04-13T01:16:27.164Z,91.89
2018-04-13T01:17:27.100Z,92.46
2018-04-13T01:18:27.011Z,91.99
2018-04-13T01:19:26.933Z,92.27
2018-04-13T01:20:26.853Z,92.27
2018-04-13T01:21:26.777Z,92.08
2018-04-13T01:22:26.700Z,92.08
2018-04-13T01:23:26.622Z,92.46
2018-04-13T01:24:26.543Z,92.65
2018-04-13T01:25:26.465Z,92.36
2018-04-13T01:26:26.386Z,92.74
2018-04-13T01:27:26.310Z,93.13
2018-04-13T01:28:26.235Z,93.13
2018-04-13T01:29:26.156Z,92.27
2018-04-13T01:30:26.074Z,92.84
2018-04-13T01:31:25.998Z,93.03
2018-04-13T01:32:25.927Z,92.94
2018-04-13T01:33:25.860Z,92.46
2018-04-13T01:34:25.771Z,92.94
2018-04-13T01:35:25.678Z,93.13
2018-04-13T01:36:25.607Z,93.13
2018-04-13T01:37:25.531Z,92.74
2018-04-13T01:38:25.450Z,93.03
2018-04-13T01:39:25.371Z,93.13
2018-04-13T01:40:25.305Z,93.22
2018-04-13T01:41:25.206Z,93.13
2018-04-13T01:42:25.141Z,93.08
2018-04-13T01:43:25.059Z,93.27
2018-04-13T01:44:24.980Z,93.08
2018-04-13T01:45:24.902Z,92.89
2018-04-13T01:46:24.823Z,93.08
2018-04-13T01:47:24.748Z,93.08
2018-04-13T01:48:24.671Z,92.70
2018-04-13T01:49:24.588Z,92.99
2018-04-13T01:50:24.510Z,93.37
2018-04-13T01:51:24.431Z,93.37
2018-04-13T01:52:24.361Z,93.46
2018-04-13T01:53:24.272Z,93.46
2018-04-13T01:54:24.196Z,93.65
2018-04-13T01:55:24.118Z,94.13
2018-04-13T01:56:24.044Z,93.18
2018-04-13T01:57:23.964Z,94.13
2018-04-13T01:58:23.899Z,93.74
2018-04-13T01:59:23.821Z,94.03
2018-04-13T02:00:23.731Z,94.60
2018-04-13T02:01:23.649Z,94.89
2018-04-13T02:02:23.570Z,94.60
2018-04-13T02:03:23.492Z,94.79
2018-04-13T02:04:23.418Z,94.51
2018-04-13T02:05:23.335Z,94.51
2018-04-13T02:06:23.256Z,93.94
2018-04-13T02:07:23.177Z,94.22
2018-04-13T02:08:23.100Z,94.13
2018-04-13T02:09:23.022Z,94.13
2018-04-13T02:10:22.943Z,94.51
2018-04-13T02:11:22.864Z,94.60
2018-04-13T02:12:22.789Z,94.13
2018-04-13T02:13:22.708Z,94.22
2018-04-13T02:14:22.629Z,94.60
2018-04-13T02:15:22.549Z,94.37
2018-04-13T02:16:22.472Z,93.98
2018-04-13T02:17:22.392Z,94.08
2018-04-13T02:18:22.315Z,94.18
2018-04-13T02:19:22.235Z,94.18
2018-04-13T02:20:22.158Z,94.56
2018-04-13T02:21:22.077Z,94.84
2018-04-13T02:22:21.999Z,94.93
2018-04-13T02:23:21.919Z,94.18
2018-04-13T02:24:21.842Z,94.37
2018-04-13T02:25:21.763Z,94.46
2018-04-13T02:26:21.685Z,94.56
2018-04-13T02:27:21.605Z,94.56
2018-04-13T02:28:21.545Z,94.93
2018-04-13T02:29:21.452Z,95.12
2018-04-13T02:30:21.372Z,94.37
2018-04-13T02:31:21.292Z,94.56
2018-04-13T02:32:21.213Z,94.46
2018-04-13T02:33:21.137Z,94.18
2018-04-13T02:34:21.088Z,94.46
2018-04-13T02:35:20.980Z,94.93
2018-04-13T02:36:20.899Z,94.74
2018-04-13T02:37:20.821Z,94.93
2018-04-13T02:38:20.744Z,95.12
2018-04-13T02:39:20.666Z,94.84
2018-04-13T02:40:20.584Z,95.60
2018-04-13T02:41:20.508Z,95.70
2018-04-13T02:42:20.425Z,95.98
2018-04-13T02:43:20.354Z,95.70
2018-04-13T02:44:20.274Z,95.32
2018-04-13T02:45:20.196Z,95.60
2018-04-13T02:46:20.167Z,95.70
2018-04-13T02:47:20.040Z,95.41
2018-04-13T02:48:19.958Z,95.51
2018-04-13T02:49:19.881Z,95.70
2018-04-13T02:50:19.799Z,95.51
2018-04-13T02:51:19.722Z,95.03
2018-04-13T02:52:19.643Z,95.03
2018-04-13T02:53:19.564Z,94.74
2018-04-13T02:54:19.485Z,95.22
2018-04-13T02:55:19.406Z,94.93
2018-04-13T02:56:19.332Z,94.93
2018-04-13T02:57:19.274Z,94.74
2018-04-13T02:58:19.171Z,95.12
2018-04-13T02:59:19.091Z,94.93
2018-04-13T03:00:19.015Z,94.65
2018-04-13T03:01:18.933Z,94.84
2018-04-13T03:02:18.858Z,94.74
2018-04-13T03:03:18.776Z,94.93
2018-04-13T03:04:18.699Z,94.56
2018-04-13T03:05:18.618Z,93.98
2018-04-13T03:06:18.539Z,94.65
2018-04-13T03:07:18.469Z,94.74
2018-04-13T03:08:18.381Z,94.65
2018-04-13T03:09:18.308Z,95.03
2018-04-13T03:10:18.229Z,95.17
2018-04-13T03:11:18.145Z,94.89
2018-04-13T03:12:18.069Z,95.36
2018-04-13T03:13:17.998Z,95.65
2018-04-13T03:14:17.916Z,95.75
2018-04-13T03:15:17.839Z,95.94
2018-04-13T03:16:17.755Z,95.75
2018-04-13T03:17:17.675Z,95.94
2018-04-13T03:18:17.598Z,96.60
2018-04-13T03:19:17.518Z,96.50
2018-04-13T03:20:17.443Z,96.41
2018-04-13T03:21:17.359Z,96.41
2018-04-13T03:22:17.286Z,95.84
2018-04-13T03:23:17.204Z,96.03
2018-04-13T03:24:17.131Z,95.65
2018-04-13T03:25:17.045Z,95.56
2018-04-13T03:26:16.970Z,95.56
2018-04-13T03:27:16.887Z,95.27
2018-04-13T03:28:16.810Z,95.46
2018-04-13T03:29:16.727Z,95.46
2018-04-13T03:30:16.651Z,95.84
2018-04-13T03:31:16.573Z,95.94
2018-04-13T03:32:16.496Z,96.03
2018-04-13T03:33:16.414Z,96.03
2018-04-13T03:34:16.339Z,96.22
2018-04-13T03:35:16.256Z,96.22
2018-04-13T03:36:16.178Z,96.60
2018-04-13T03:37:16.099Z,96.98
2018-04-13T03:38:16.018Z,96.69
2018-04-13T03:39:15.940Z,96.41
2018-04-13T03:40:15.864Z,95.84
2018-04-13T03:41:15.781Z,96.31
2018-04-13T03:42:15.703Z,96.41
2018-04-13T03:43:15.626Z,96.22
2018-04-13T03:44:15.548Z,96.03
2018-04-13T03:45:15.471Z,96.50
2018-04-13T03:46:15.393Z,96.41
2018-04-13T03:47:15.317Z,96.69
2018-04-13T03:48:15.232Z,96.41
2018-04-13T03:49:15.152Z,96.03
2018-04-13T03:50:15.079Z,95.84
2018-04-13T03:51:14.995Z,95.56
2018-04-13T03:52:14.916Z,95.84
2018-04-13T03:53:14.839Z,96.12
2018-04-13T03:54:14.757Z,95.46
2018-04-13T03:55:14.679Z,95.75
2018-04-13T03:56:14.597Z,95.84
2018-04-13T03:57:14.516Z,95.75
2018-04-13T03:58:14.443Z,95.56
2018-04-13T03:59:14.371Z,95.36
2018-04-13T04:00:14.284Z,95.46
2018-04-13T04:01:14.248Z,95.65
2018-04-13T04:02:14.132Z,95.36
2018-04-13T04:03:14.046Z,94.89
2018-04-13T04:04:13.967Z,95.65
2018-04-13T04:05:13.895Z,95.46
2018-04-13T04:06:13.818Z,95.46
2018-04-13T04:07:13.725Z,95.84
2018-04-13T04:08:13.652Z,95.84
2018-04-13T04:09:13.569Z,95.56
2018-04-13T04:10:13.508Z,95.46
2018-04-13T04:11:13.414Z,95.84
2018-04-13T04:12:13.334Z,95.51
2018-04-13T04:13:13.260Z,95.32
2018-04-13T04:14:13.179Z,95.84
2018-04-13T04:15:13.094Z,95.60
2018-04-13T04:16:13.031Z,95.41
2018-04-13T04:17:12.963Z,95.46
2018-04-13T04:18:12.862Z,95.46
2018-04-13T04:19:12.782Z,95.27
2018-04-13T04:20:12.704Z,95.65
2018-04-13T04:21:12.624Z,95.79
2018-04-13T04:22:12.546Z,96.12
2018-04-13T04:23:12.469Z,95.27
2018-04-13T04:24:12.427Z,95.36
2018-04-13T04:25:12.346Z,95.56
2018-04-13T04:26:12.229Z,95.65
2018-04-13T04:27:12.151Z,95.46
2018-04-13T04:28:12.071Z,95.98
2018-04-13T04:29:11.999Z,95.56
2018-04-13T04:30:11.913Z,95.27
2018-04-13T04:31:11.842Z,95.36
2018-04-13T04:32:11.756Z,95.65
2018-04-13T04:33:11.676Z,95.51
2018-04-13T04:34:11.598Z,95.56
2018-04-13T04:35:11.526Z,95.41
2018-04-13T04:36:11.454Z,96.03
2018-04-13T04:37:11.363Z,95.94
2018-04-13T04:38:11.281Z,95.65
2018-04-13T04:39:11.200Z,95.65
2018-04-13T04:40:11.123Z,95.46
2018-04-13T04:41:11.048Z,95.46
2018-04-13T04:42:10.967Z,95.17
2018-04-13T04:43:10.888Z,95.46
2018-04-13T04:44:10.808Z,95.84
2018-04-13T04:45:10.729Z,95.46
2018-04-13T04:46:10.656Z,95.75
2018-04-13T04:47:10.575Z,95.84
2018-04-13T04:48:10.492Z,95.75
2018-04-13T04:49:10.412Z,95.75
2018-04-13T04:50:10.340Z,95.94
2018-04-13T04:51:10.254Z,95.70
2018-04-13T04:52:10.179Z,95.84
2018-04-13T04:53:10.098Z,96.17
2018-04-13T04:54:10.020Z,96.17
2018-04-13T04:55:09.942Z,96.65
2018-04-13T04:56:09.863Z,96.65
2018-04-13T04:57:09.782Z,96.55
2018-04-13T04:58:09.704Z,96.55
2018-04-13T04:59:09.625Z,96.89
2018-04-13T05:00:09.548Z,96.50
2018-04-13T05:01:09.466Z,95.98
2018-04-13T05:02:09.388Z,96.17
2018-04-13T05:03:09.308Z,96.36
2018-04-13T05:04:09.230Z,96.03
2018-04-13T05:05:09.150Z,95.84
2018-04-13T05:06:09.075Z,96.03
2018-04-13T05:07:08.992Z,96.03
2018-04-13T05:08:08.921Z,95.65
2018-04-13T05:09:08.836Z,95.70
2018-04-13T05:10:08.757Z,95.41
2018-04-13T05:11:08.677Z,95.46
2018-04-13T05:12:08.605Z,95.65
2018-04-13T05:13:08.519Z,95.17
2018-04-13T05:14:08.440Z,95.08
2018-04-13T05:15:08.363Z,95.08
2018-04-13T05:16:08.283Z,95.03
2018-04-13T05:17:08.203Z,95.08
2018-04-13T05:18:08.125Z,94.98
2018-04-13T05:19:08.043Z,95.41
2018-04-13T05:20:07.966Z,95.17
2018-04-13T05:21:07.893Z,95.65
2018-04-13T05:22:07.808Z,95.75
2018-04-13T05:23:07.730Z,95.94
2018-04-13T05:24:07.652Z,95.70
2018-04-13T05:25:07.574Z,95.36
2018-04-13T05:26:07.493Z,95.56
2018-04-13T05:27:07.419Z,95.75
2018-04-13T05:28:07.334Z,94.89
2018-04-13T05:29:07.253Z,95.36
2018-04-13T05:30:07.177Z,95.08
2018-04-13T05:31:07.091Z,94.70
2018-04-13T05:32:07.021Z,94.70
2018-04-13T05:33:06.953Z,94.70
2018-04-13T05:34:06.861Z,95.08
2018-04-13T05:35:06.834Z,95.08
2018-04-13T05:36:06.707Z,94.70
2018-04-13T05:37:06.625Z,94.60
2018-04-13T05:38:06.544Z,94.89
2018-04-13T05:39:06.467Z,94.60
2018-04-13T05:40:06.390Z,94.79
2018-04-13T05:41:06.310Z,94.60
2018-04-13T05:42:06.231Z,94.42
2018-04-13T05:43:06.152Z,94.79
2018-04-13T05:44:06.073Z,94.98
2018-04-13T05:45:06.003Z,94.79
2018-04-13T05:46:05.925Z,94.51
2018-04-13T05:47:05.837Z,94.60
2018-04-13T05:48:05.757Z,94.70
2018-04-13T05:49:05.678Z,94.60
2018-04-13T05:50:05.600Z,94.98
2018-04-13T05:51:05.520Z,94.89
2018-04-13T05:52:05.442Z,94.89
2018-04-13T05:53:05.365Z,94.70
2018-04-13T05:54:05.285Z,94.13
2018-04-13T05:55:05.205Z,93.94
2018-04-13T05:56:05.127Z,94.51
2018-04-13T05:57:05.056Z,94.51
2018-04-13T05:58:04.969Z,94.18
2018-04-13T05:59:04.894Z,94.42
2018-04-13T06:00:04.813Z,94.74
2018-04-13T06:01:04.734Z,93.98
2018-04-13T06:02:04.655Z,94.08
2018-04-13T06:03:04.585Z,94.18
2018-04-13T06:04:04.499Z,94.18
2018-04-13T06:05:04.421Z,93.60
2018-04-13T06:06:04.398Z,94.08
2018-04-13T06:07:04.262Z,93.89
2018-04-13T06:08:04.185Z,94.08
2018-04-13T06:09:04.113Z,94.08
2018-04-13T06:10:04.028Z,93.98
2018-04-13T06:11:03.949Z,93.41
2018-04-13T06:12:03.871Z,94.18
2018-04-13T06:13:03.791Z,93.32
2018-04-13T06:14:03.716Z,93.51
2018-04-13T06:15:03.641Z,93.51
2018-04-13T06:16:03.558Z,93.23
2018-04-13T06:17:03.479Z,92.75
2018-04-13T06:18:03.403Z,92.75
2018-04-13T06:19:03.323Z,93.04
2018-04-13T06:20:03.248Z,93.13
2018-04-13T06:21:03.165Z,92.65
2018-04-13T06:22:03.090Z,92.94
2018-04-13T06:23:03.013Z,93.04
2018-04-13T06:24:02.935Z,93.04
2018-04-13T06:25:02.854Z,93.04
2018-04-13T06:26:02.776Z,93.04
2018-04-13T06:27:02.698Z,92.94
2018-04-13T06:28:02.619Z,93.04
2018-04-13T06:29:02.544Z,92.99
2018-04-13T06:30:02.466Z,93.08
2018-04-13T06:31:02.385Z,92.79
2018-04-13T06:32:02.314Z,92.89
2018-04-13T06:33:02.239Z,92.41
2018-04-13T06:34:02.152Z,92.03
2018-04-13T06:35:02.073Z,91.94
2018-04-13T06:36:01.997Z,91.46
2018-04-13T06:37:01.915Z,91.37
2018-04-13T06:38:01.842Z,91.46
2018-04-13T06:39:01.765Z,91.94
2018-04-13T06:40:01.686Z,91.46
2018-04-13T06:41:01.608Z,91.37
2018-04-13T06:42:01.531Z,90.80
2018-04-13T06:43:01.456Z,91.75
2018-04-13T06:44:01.374Z,91.13
2018-04-13T06:45:01.296Z,90.75
2018-04-13T06:46:01.221Z,90.94
2018-04-13T06:47:01.144Z,90.84
2018-04-13T06:48:01.063Z,90.17
2018-04-13T06:49:00.984Z,90.27
2018-04-13T06:50:00.907Z,90.36
2018-04-13T06:51:00.831Z,89.61
2018-04-13T06:52:00.754Z,89.41
2018-04-13T06:53:00.676Z,89.03
2018-04-13T06:54:00.598Z,88.56
2018-04-13T06:55:00.523Z,88.37
2018-04-13T06:56:00.444Z,88.75
2018-04-13T06:57:00.369Z,88.37
2018-04-13T06:58:00.289Z,88.84
2018-04-13T06:59:00.212Z,88.51
2018-04-13T07:00:00.146Z,88.70
2018-04-13T07:01:00.051Z,88.70
2018-04-13T07:01:59.982Z,88.41
2018-04-13T07:02:59.909Z,87.65
2018-04-13T07:03:59.825Z,87.46
2018-04-13T07:04:59.751Z,86.88
2018-04-13T07:05:59.672Z,87.27
2018-04-13T07:06:59.591Z,86.69
2018-04-13T07:07:59.520Z,86.69
2018-04-13T07:08:59.440Z,86.83
2018-04-13T07:09:59.366Z,86.16
2018-04-13T07:10:59.294Z,85.88
2018-04-13T07:11:59.208Z,85.97
2018-04-13T07:12:59.134Z,85.88
2018-04-13T07:13:59.060Z,85.78
2018-04-13T07:14:58.981Z,85.60
2018-04-13T07:15:58.903Z,85.97
2018-04-13T07:16:58.826Z,85.97
2018-04-13T07:17:58.753Z,85.97
2018-04-13T07:18:58.675Z,86.07
2018-04-13T07:19:58.597Z,85.60
2018-04-13T07:20:58.520Z,85.41
2018-04-13T07:21:58.443Z,84.64
2018-04-13T07:22:58.368Z,84.74
2018-04-13T07:23:58.301Z,85.31
2018-04-13T07:24:58.217Z,85.02
2018-04-13T07:25:58.136Z,85.88
2018-04-13T07:26:58.059Z,85.50
2018-04-13T07:27:57.984Z,85.78
2018-04-13T07:28:57.907Z,85.21
2018-04-13T07:29:57.833Z,84.74
2018-04-13T07:30:57.755Z,84.74
2018-04-13T07:31:57.676Z,84.83
2018-04-13T07:32:57.597Z,84.59
2018-04-13T07:33:57.523Z,84.40
2018-04-13T07:34:57.447Z,84.40
2018-04-13T07:35:57.371Z,84.69
2018-04-13T07:36:57.296Z,84.49
2018-04-13T07:37:57.217Z,84.11
2018-04-13T07:38:57.139Z,83.92
2018-04-13T07:39:57.166Z,83.83
2018-04-13T07:40:56.989Z,84.30
2018-04-13T07:41:56.910Z,84.20
2018-04-13T07:42:56.840Z,84.01
2018-04-13T07:43:56.758Z,84.30
2018-04-13T07:44:56.716Z,84.30
2018-04-13T07:45:56.607Z,84.59
2018-04-13T07:46:56.531Z,83.54
2018-04-13T07:47:56.452Z,83.83
2018-04-13T07:48:56.374Z,83.54
2018-04-13T07:49:56.701Z,82.78
2018-04-13T07:50:56.752Z,82.97
2018-04-13T07:51:56.149Z,82.68
2018-04-13T07:52:56.071Z,82.40
2018-04-13T07:53:55.995Z,82.63
2018-04-13T07:54:55.918Z,81.96
2018-04-13T07:55:55.846Z,81.77
2018-04-13T07:56:55.765Z,81.67
2018-04-13T07:57:55.692Z,81.29
2018-04-13T07:58:55.990Z,81.01
2018-04-13T07:59:55.536Z,80.91
2018-04-13T08:00:55.463Z,80.53
2018-04-13T08:01:55.410Z,80.43
2018-04-13T08:02:55.312Z,80.43
2018-04-13T08:03:55.237Z,81.01
2018-04-13T08:04:55.156Z,80.85
2018-04-13T08:05:55.081Z,80.47
2018-04-13T08:06:55.004Z,80.19
2018-04-13T08:07:54.933Z,79.80
2018-04-13T08:08:54.892Z,79.99
2018-04-13T08:09:54.775Z,79.04
2018-04-13T08:10:54.703Z,78.37
2018-04-13T08:11:54.627Z,77.99
2018-04-13T08:12:54.548Z,76.84
2018-04-13T08:13:54.781Z,76.03
2018-04-13T08:14:54.399Z,75.35
2018-04-13T08:15:54.431Z,75.45
2018-04-13T08:16:54.249Z,75.07
2018-04-13T08:17:54.197Z,74.78
2018-04-13T08:18:54.095Z,75.64
2018-04-13T08:19:54.020Z,75.83
2018-04-13T08:20:53.946Z,75.35
2018-04-13T08:21:53.873Z,75.35
2018-04-13T08:22:53.796Z,74.78
2018-04-13T08:23:53.721Z,75.16
2018-04-13T08:24:53.643Z,74.78
2018-04-13T08:25:53.569Z,74.40
2018-04-13T08:26:53.498Z,74.11
2018-04-13T08:27:53.418Z,74.02
2018-04-13T08:28:53.347Z,74.49
2018-04-13T08:29:53.296Z,74.40
2018-04-13T08:30:53.194Z,75.26
2018-04-13T08:31:53.119Z,74.98
2018-04-13T08:32:53.061Z,74.88
2018-04-13T08:33:52.966Z,75.26
2018-04-13T08:34:52.894Z,75.54
2018-04-13T08:35:52.817Z,75.64
2018-04-13T08:36:52.743Z,75.64
2018-04-13T08:37:52.666Z,75.93
2018-04-13T08:38:52.584Z,75.74
2018-04-13T08:39:52.516Z,75.74
2018-04-13T08:40:52.442Z,75.54
2018-04-13T08:41:52.369Z,75.30
2018-04-13T08:42:52.291Z,75.49
2018-04-13T08:43:52.218Z,74.73
2018-04-13T08:44:52.188Z,74.82
2018-04-13T08:45:52.064Z,74.82
2018-04-13T08:46:51.993Z,75.01
2018-04-13T08:47:51.924Z,75.01
2018-04-13T08:48:51.974Z,75.30
2018-04-13T08:49:51.764Z,74.63
2018-04-13T08:50:51.688Z,74.82
2018-04-13T08:51:51.616Z,74.82
2018-04-13T08:52:51.557Z,74.82
2018-04-13T08:53:51.471Z,74.34
2018-04-13T08:54:51.389Z,74.09
2018-04-13T08:55:51.312Z,73.99
2018-04-13T08:56:51.255Z,73.96
2018-04-13T08:57:51.164Z,74.19
2018-04-13T08:58:51.093Z,74.85
2018-04-13T08:59:51.014Z,74.57
2018-04-13T09:00:50.941Z,74.38
2018-04-13T09:01:50.864Z,74.19
2018-04-13T09:02:50.789Z,74.19
2018-04-13T09:03:50.715Z,73.36
2018-04-13T09:04:50.639Z,73.17
2018-04-13T09:05:50.565Z,73.17
2018-04-13T09:06:50.494Z,73.08
2018-04-13T09:07:50.416Z,72.98
2018-04-13T09:08:50.340Z,73.27
2018-04-13T09:09:50.267Z,72.88
2018-04-13T09:10:50.193Z,73.36
2018-04-13T09:11:50.118Z,72.98
2018-04-13T09:12:50.042Z,72.88
2018-04-13T09:13:49.970Z,72.22
2018-04-13T09:14:49.894Z,73.08
2018-04-13T09:15:49.822Z,73.27
2018-04-13T09:16:49.749Z,72.88
2018-04-13T09:17:49.670Z,73.17
2018-04-13T09:18:49.596Z,73.17
2018-04-13T09:19:49.522Z,74.22
2018-04-13T09:20:49.470Z,74.41
2018-04-13T09:21:49.375Z,74.32
2018-04-13T09:22:49.316Z,74.51
2018-04-13T09:23:49.232Z,74.80
2018-04-13T09:24:49.148Z,74.22
2018-04-13T09:25:49.077Z,74.51
2018-04-13T09:26:49.000Z,74.51
2018-04-13T09:27:48.931Z,74.41
2018-04-13T09:28:48.851Z,73.59
2018-04-13T09:29:48.774Z,72.92
2018-04-13T09:30:48.703Z,73.21
2018-04-13T09:31:48.634Z,73.21
2018-04-13T09:32:48.551Z,73.88
2018-04-13T09:33:48.477Z,73.21
2018-04-13T09:34:48.404Z,73.11
2018-04-13T09:35:48.346Z,73.21
2018-04-13T09:36:48.254Z,73.40
2018-04-13T09:37:48.181Z,72.92
2018-04-13T09:38:48.108Z,73.30
2018-04-13T09:39:48.033Z,73.50
2018-04-13T09:40:47.959Z,73.02
2018-04-13T09:41:47.882Z,73.21
2018-04-13T09:42:47.810Z,72.92
2018-04-13T09:43:47.736Z,72.83
2018-04-13T09:44:47.660Z,72.92
2018-04-13T09:45:47.585Z,73.30
2018-04-13T09:46:47.515Z,73.40
2018-04-13T09:47:47.438Z,73.21
2018-04-13T09:48:47.365Z,73.11
2018-04-13T09:49:47.289Z,73.40
2018-04-13T09:50:47.219Z,73.40
2018-04-13T09:51:47.138Z,73.11
2018-04-13T09:52:47.067Z,73.54
2018-04-13T09:53:46.994Z,73.34
2018-04-13T09:54:46.919Z,73.24
2018-04-13T09:55:46.843Z,73.21
2018-04-13T09:56:46.770Z,73.44
2018-04-13T09:57:46.699Z,73.44
2018-04-13T09:58:46.625Z,73.50
2018-04-13T09:59:46.549Z,73.44
2018-04-13T10:00:46.472Z,73.44
2018-04-13T10:01:46.398Z,73.54
2018-04-13T10:02:46.324Z,73.21
2018-04-13T10:03:46.250Z,74.40
2018-04-13T10:04:46.176Z,73.97
2018-04-13T10:05:46.104Z,73.54
2018-04-13T10:06:46.027Z,73.50
2018-04-13T10:07:45.954Z,73.44
2018-04-13T10:08:45.878Z,73.40
2018-04-13T10:09:45.804Z,74.11
2018-04-13T10:10:45.731Z,74.30
2018-04-13T10:11:45.655Z,74.40
2018-04-13T10:12:45.581Z,74.26
2018-04-13T10:13:45.505Z,74.55
2018-04-13T10:14:45.432Z,74.45
2018-04-13T10:15:45.402Z,74.55
2018-04-13T10:16:45.279Z,74.55
2018-04-13T10:17:45.214Z,75.02
2018-04-13T10:18:45.136Z,74.55
2018-04-13T10:19:45.062Z,74.55
2018-04-13T10:20:44.982Z,74.65
2018-04-13T10:21:44.915Z,74.74
2018-04-13T10:22:44.839Z,74.74
2018-04-13T10:23:44.773Z,74.58
2018-04-13T10:24:44.695Z,74.40
2018-04-13T10:25:44.613Z,74.20
2018-04-13T10:26:44.541Z,73.54
2018-04-13T10:27:44.469Z,72.77
2018-04-13T10:28:44.393Z,72.77
2018-04-13T10:29:44.319Z,72.96
2018-04-13T10:30:44.243Z,72.77
2018-04-13T10:31:44.169Z,73.44
2018-04-13T10:32:44.096Z,73.11
2018-04-13T10:33:44.020Z,73.24
2018-04-13T10:34:43.958Z,73.79
2018-04-13T10:35:43.872Z,74.20
2018-04-13T10:36:43.800Z,73.63
2018-04-13T10:37:43.723Z,74.20
2018-04-13T10:38:43.650Z,74.20
2018-04-13T10:39:43.576Z,74.30
2018-04-13T10:40:43.504Z,74.65
2018-04-13T10:41:43.427Z,74.68
2018-04-13T10:42:43.356Z,74.26
2018-04-13T10:43:43.281Z,73.30
2018-04-13T10:44:43.203Z,73.63
2018-04-13T10:45:43.130Z,74.87
2018-04-13T10:46:43.063Z,74.20
2018-04-13T10:47:42.980Z,73.44
2018-04-13T10:48:42.903Z,73.63
2018-04-13T10:49:42.830Z,73.34
2018-04-13T10:50:42.768Z,74.30
2018-04-13T10:51:42.683Z,74.49
2018-04-13T10:52:42.609Z,74.58
2018-04-13T10:53:42.533Z,74.49
2018-04-13T10:54:42.460Z,74.20
2018-04-13T10:55:42.400Z,74.49
2018-04-13T10:56:42.312Z,73.54
2018-04-13T10:57:42.258Z,72.77
2018-04-13T10:58:42.162Z,72.77
2018-04-13T10:59:42.088Z,73.24
2018-04-13T11:00:42.017Z,73.24
2018-04-13T11:01:41.939Z,73.15
2018-04-13T11:02:41.867Z,72.86
2018-04-13T11:03:41.794Z,73.34
2018-04-13T11:04:41.718Z,72.86
2018-04-13T11:05:41.642Z,72.00
2018-04-13T11:06:41.569Z,72.19
2018-04-13T11:07:41.502Z,71.91
2018-04-13T11:08:41.419Z,72.29
2018-04-13T11:09:41.349Z,72.09
2018-04-13T11:10:41.272Z,72.29
2018-04-13T11:11:41.199Z,72.23
2018-04-13T11:12:41.130Z,72.13
2018-04-13T11:13:41.049Z,72.00
2018-04-13T11:14:40.977Z,71.81
2018-04-13T11:15:40.905Z,72.13
2018-04-13T11:16:40.832Z,71.81
2018-04-13T11:17:40.751Z,72.23
2018-04-13T11:18:40.679Z,72.32
2018-04-13T11:19:40.604Z,71.66
2018-04-13T11:20:40.530Z,72.13
2018-04-13T11:21:40.456Z,72.00
2018-04-13T11:22:40.381Z,72.90
2018-04-13T11:23:40.309Z,72.00
2018-04-13T11:24:40.233Z,71.56
2018-04-13T11:25:40.166Z,72.32
2018-04-13T11:26:40.087Z,71.84
2018-04-13T11:27:40.015Z,71.75
2018-04-13T11:28:39.937Z,69.74
2018-04-13T11:29:39.863Z,69.45
2018-04-13T11:30:39.788Z,69.74
2018-04-13T11:31:39.715Z,68.87
2018-04-13T11:32:39.640Z,69.26
2018-04-13T11:33:39.568Z,70.03
2018-04-13T11:34:39.492Z,70.03
2018-04-13T11:35:39.422Z,68.40
2018-04-13T11:36:39.348Z,68.68
2018-04-13T11:37:39.270Z,68.21
2018-04-13T11:38:39.197Z,67.91
2018-04-13T11:39:39.123Z,67.54
2018-04-13T11:40:39.045Z,67.05
2018-04-13T11:41:38.973Z,67.63
2018-04-13T11:42:38.899Z,66.89
2018-04-13T11:43:38.825Z,66.22
2018-04-13T11:44:38.751Z,66.22
2018-04-13T11:45:38.677Z,65.46
2018-04-13T11:46:38.605Z,65.75
2018-04-13T11:47:38.531Z,65.36
2018-04-13T11:48:38.466Z,65.08
2018-04-13T11:49:38.393Z,65.78
2018-04-13T11:50:38.308Z,64.34
2018-04-13T11:51:38.236Z,62.81
2018-04-13T11:52:38.166Z,61.94
2018-04-13T11:53:38.088Z,61.85
2018-04-13T11:54:38.013Z,60.60
2018-04-13T11:55:37.940Z,59.74
2018-04-13T11:56:37.865Z,60.50
2018-04-13T11:57:37.793Z,59.74
2018-04-13T11:58:37.722Z,59.55
2018-04-13T11:59:37.647Z,58.71
2018-04-13T12:00:37.572Z,58.04
2018-04-13T12:01:37.500Z,56.98
2018-04-13T12:02:37.429Z,56.79
2018-04-13T12:03:37.352Z,56.51
2018-04-13T12:04:37.280Z,55.74
2018-04-13T12:05:37.209Z,56.24
2018-04-13T12:06:37.135Z,55.29
2018-04-13T12:07:37.061Z,54.52
2018-04-13T12:08:36.989Z,54.61
2018-04-13T12:09:36.918Z,54.71
2018-04-13T12:10:36.843Z,54.61
2018-04-13T12:11:36.770Z,54.61
2018-04-13T12:12:36.698Z,53.75
2018-04-13T12:13:36.623Z,54.52
2018-04-13T12:14:36.555Z,53.75
2018-04-13T12:15:36.479Z,54.71
2018-04-13T12:16:36.406Z,54.42
2018-04-13T12:17:36.333Z,54.52
2018-04-13T12:18:36.264Z,54.33
2018-04-13T12:19:36.190Z,52.98
2018-04-13T12:20:36.120Z,53.08
2018-04-13T12:21:36.046Z,53.36
2018-04-13T12:22:35.971Z,53.17
2018-04-13T12:23:35.908Z,53.27
2018-04-13T12:24:35.831Z,52.69
2018-04-13T12:25:35.757Z,53.36
2018-04-13T12:26:35.680Z,53.27
2018-04-13T12:27:35.614Z,53.27
2018-04-13T12:28:35.538Z,53.75
2018-04-13T12:29:35.463Z,53.66
2018-04-13T12:30:35.390Z,53.46
2018-04-13T12:31:35.316Z,53.46
2018-04-13T12:32:35.245Z,53.05
2018-04-13T12:33:35.171Z,53.05
2018-04-13T12:34:35.100Z,53.63
2018-04-13T12:35:35.031Z,53.63
2018-04-13T12:36:34.954Z,54.49
2018-04-13T12:37:34.882Z,54.58
2018-04-13T12:38:34.811Z,54.49
2018-04-13T12:39:34.738Z,55.07
2018-04-13T12:40:34.659Z,54.49
2018-04-13T12:41:34.590Z,54.49
2018-04-13T12:42:34.516Z,54.58
2018-04-13T12:43:34.442Z,54.97
2018-04-13T12:44:34.369Z,54.78
2018-04-13T12:45:34.293Z,54.68
2018-04-13T12:46:34.223Z,55.64
2018-04-13T12:47:34.150Z,55.64
2018-04-13T12:48:34.081Z,55.45
2018-04-13T12:49:34.004Z,55.83
2018-04-13T12:50:33.930Z,55.35
2018-04-13T12:51:33.858Z,54.78